createdAt,value
2023-02-27T00:00:19.092Z,1.30
2023-02-27T00:02:50.447Z,0.85
2023-02-27T00:05:19.407Z,1.40
2023-02-27T00:07:48.665Z,1.50
2023-02-27T00:10:16.940Z,1.00
2023-02-27T00:12:45.614Z,0.90
2023-02-27T00:15:15.629Z,1.25
2023-02-27T00:17:47.102Z,1.15
2023-02-27T00:20:22.233Z,1.37
2023-02-27T00:22:51.977Z,1.50
2023-02-27T00:25:20.605Z,1.08
2023-02-27T00:27:48.862Z,1.10
2023-02-27T00:30:17.649Z,1.20
2023-02-27T00:32:48.706Z,1.15
2023-02-27T00:35:16.591Z,1.17
2023-02-27T00:37:44.654Z,1.00
2023-02-27T00:40:15.002Z,1.20
2023-02-27T00:42:46.222Z,0.90
2023-02-27T00:45:14.203Z,1.13
2023-02-27T00:47:42.221Z,1.17
2023-02-27T00:50:14.465Z,1.40
2023-02-27T00:52:42.863Z,1.17
2023-02-27T00:55:11.696Z,0.98
2023-02-27T00:57:41.342Z,1.55
2023-02-27T01:00:11.406Z,1.35
2023-02-27T01:02:42.686Z,1.27
2023-02-27T01:05:14.304Z,1.50
2023-02-27T01:07:42.616Z,1.40
2023-02-27T01:10:12.869Z,1.85
2023-02-27T01:12:42.596Z,1.30
2023-02-27T01:15:13.777Z,1.80
2023-02-27T01:17:44.406Z,1.45
2023-02-27T01:20:13.931Z,1.65
2023-02-27T01:22:42.084Z,1.60
2023-02-27T01:25:11.022Z,1.80
2023-02-27T01:27:40.938Z,1.30
2023-02-27T01:30:12.647Z,1.42
2023-02-27T01:32:40.622Z,1.23
2023-02-27T01:35:09.187Z,1.20
2023-02-27T01:37:37.165Z,1.23
2023-02-27T01:40:07.991Z,1.40
2023-02-27T01:42:36.415Z,1.23
2023-02-27T01:45:30.836Z,1.20
2023-02-27T01:48:11.815Z,1.80
2023-02-27T01:50:44.994Z,1.50
2023-02-27T01:53:13.694Z,1.80
2023-02-27T01:55:42.051Z,1.23
2023-02-27T01:58:14.623Z,1.58
2023-02-27T02:00:44.452Z,1.73
2023-02-27T02:03:24.619Z,2.55
2023-02-27T02:05:56.652Z,2.05
2023-02-27T02:08:28.291Z,1.80
2023-02-27T02:11:00.235Z,1.17
2023-02-27T02:13:30.051Z,1.95
2023-02-27T02:16:12.459Z,2.38
2023-02-27T02:18:50.166Z,2.25
2023-02-27T02:21:55.441Z,2.97
2023-02-27T02:24:50.967Z,1.30
2023-02-27T02:27:36.979Z,2.05
2023-02-27T02:30:53.227Z,2.47
2023-02-27T02:33:52.459Z,1.50
2023-02-27T02:36:57.019Z,2.15
2023-02-27T02:40:09.610Z,2.50
2023-02-27T02:42:49.365Z,2.15
2023-02-27T02:45:31.846Z,1.88
2023-02-27T02:48:16.982Z,2.13
2023-02-27T02:51:00.143Z,1.90
2023-02-27T02:53:38.260Z,2.35
2023-02-27T02:56:15.914Z,2.45
2023-02-27T02:58:53.485Z,2.20
2023-02-27T03:01:29.986Z,2.15
2023-02-27T03:04:16.988Z,2.05
2023-02-27T03:06:53.930Z,2.35
2023-02-27T03:09:28.840Z,1.98
2023-02-27T03:12:00.060Z,2.33
2023-02-27T03:14:36.108Z,2.53
2023-02-27T03:17:09.724Z,1.80
2023-02-27T03:19:42.066Z,2.60
2023-02-27T03:22:12.252Z,3.08
2023-02-27T03:24:45.327Z,1.85
2023-02-27T03:27:15.732Z,2.47
2023-02-27T03:29:50.794Z,2.63
2023-02-27T03:32:22.823Z,2.22
2023-02-27T03:34:55.066Z,2.63
2023-02-27T03:37:31.337Z,2.47
2023-02-27T03:40:10.613Z,2.42
2023-02-27T03:42:42.899Z,2.42
2023-02-27T03:45:19.704Z,2.78
2023-02-27T03:47:48.648Z,3.03
2023-02-27T03:50:17.350Z,2.78
2023-02-27T03:52:53.939Z,2.58
2023-02-27T03:55:30.971Z,2.28
2023-02-27T03:57:59.165Z,2.05
2023-02-27T04:00:29.825Z,2.60
2023-02-27T04:03:00.793Z,2.55
2023-02-27T04:05:38.700Z,2.60
2023-02-27T04:08:38.624Z,2.30
2023-02-27T04:11:36.322Z,2.30
2023-02-27T04:14:35.933Z,2.08
2023-02-27T04:17:37.093Z,2.17
2023-02-27T04:20:32.739Z,2.63
2023-02-27T04:23:05.742Z,2.45
2023-02-27T04:25:42.354Z,2.20
2023-02-27T04:28:19.854Z,2.08
2023-02-27T04:31:10.729Z,2.20
2023-02-27T04:33:46.749Z,2.03
2023-02-27T04:36:23.337Z,1.63
2023-02-27T04:39:00.654Z,2.17
2023-02-27T04:41:33.625Z,2.20
2023-02-27T04:44:02.975Z,1.55
2023-02-27T04:46:33.098Z,1.77
2023-02-27T04:49:09.019Z,1.80
2023-02-27T04:51:41.295Z,1.63
2023-02-27T04:54:14.265Z,2.00
2023-02-27T04:56:54.419Z,1.63
2023-02-27T04:59:25.996Z,1.90
2023-02-27T05:02:00.901Z,1.85
2023-02-27T05:04:42.424Z,1.98
2023-02-27T05:07:23.287Z,1.98
2023-02-27T05:10:00.790Z,2.30
2023-02-27T05:12:39.059Z,1.90
2023-02-27T05:15:19.083Z,1.75
2023-02-27T05:18:27.990Z,1.88
2023-02-27T05:21:22.369Z,2.15
2023-02-27T05:24:10.620Z,1.85
2023-02-27T05:26:56.327Z,2.38
2023-02-27T05:29:39.896Z,1.90
2023-02-27T05:32:36.051Z,1.80
2023-02-27T05:35:21.277Z,1.45
2023-02-27T05:38:02.251Z,1.33
2023-02-27T05:43:58.261Z,2.60
2023-02-27T05:46:46.770Z,2.33
2023-02-27T05:49:31.746Z,2.15
2023-02-27T05:52:08.646Z,2.08
2023-02-27T05:54:45.688Z,2.05
2023-02-27T05:57:31.197Z,2.05
2023-02-27T06:00:20.086Z,1.70
2023-02-27T06:03:07.037Z,1.77
2023-02-27T06:05:45.413Z,1.23
2023-02-27T06:08:21.112Z,1.98
2023-02-27T06:10:54.061Z,1.33
2023-02-27T06:13:23.154Z,1.38
2023-02-27T06:15:54.148Z,1.30
2023-02-27T06:18:23.063Z,1.60
2023-02-27T06:20:51.358Z,1.30
2023-02-27T06:23:20.868Z,1.20
2023-02-27T06:25:49.881Z,1.55
2023-02-27T06:28:19.242Z,1.70
2023-02-27T06:30:47.246Z,2.15
2023-02-27T06:33:16.411Z,1.70
2023-02-27T06:35:46.154Z,1.80
2023-02-27T06:38:17.220Z,2.17
2023-02-27T06:40:45.218Z,2.05
2023-02-27T06:43:15.176Z,1.52
2023-02-27T06:45:47.515Z,1.23
2023-02-27T06:48:15.581Z,1.63
2023-02-27T06:50:43.594Z,1.33
2023-02-27T06:53:11.566Z,1.80
2023-02-27T06:55:42.237Z,1.52
2023-02-27T06:58:10.805Z,1.33
2023-02-27T07:00:38.836Z,1.35
2023-02-27T07:03:08.652Z,1.30
2023-02-27T07:05:36.957Z,1.67
2023-02-27T07:08:05.268Z,1.65
2023-02-27T07:10:33.312Z,1.27
2023-02-27T07:13:03.474Z,1.65
2023-02-27T07:15:33.471Z,1.15
2023-02-27T07:18:01.573Z,1.45
2023-02-27T07:20:30.953Z,1.15
2023-02-27T07:22:59.134Z,1.10
2023-02-27T07:25:27.167Z,1.27
2023-02-27T07:27:57.210Z,1.40
2023-02-27T07:30:25.206Z,1.33
2023-02-27T07:32:55.052Z,1.63
2023-02-27T07:35:23.028Z,1.52
2023-02-27T07:37:52.679Z,2.28
2023-02-27T07:40:25.093Z,1.70
2023-02-27T07:45:22.415Z,0.93
2023-02-27T07:47:53.269Z,1.73
2023-02-27T07:50:21.463Z,1.73
2023-02-27T07:52:49.418Z,1.60
2023-02-27T07:55:18.982Z,1.83
2023-02-27T07:57:47.177Z,1.38
2023-02-27T08:00:15.751Z,1.70
2023-02-27T08:02:43.836Z,2.05
2023-02-27T08:05:11.886Z,2.10
2023-02-27T08:07:40.875Z,2.35
2023-02-27T08:10:09.562Z,3.00
2023-02-27T08:12:39.354Z,2.05
2023-02-27T08:15:08.862Z,1.63
2023-02-27T08:17:36.826Z,1.67
2023-02-27T08:20:08.649Z,1.73
2023-02-27T08:22:36.597Z,1.90
2023-02-27T08:25:07.036Z,1.88
2023-02-27T08:27:35.241Z,1.77
2023-02-27T08:30:05.949Z,1.95
2023-02-27T08:32:34.781Z,2.15
2023-02-27T08:35:02.932Z,1.65
2023-02-27T08:37:31.012Z,1.63
2023-02-27T08:39:59.210Z,1.90
2023-02-27T08:42:27.177Z,1.73
2023-02-27T08:44:56.462Z,0.98
2023-02-27T08:47:26.214Z,1.45
2023-02-27T08:49:54.184Z,1.90
2023-02-27T08:52:24.643Z,1.05
2023-02-27T08:54:55.590Z,1.05
2023-02-27T08:57:23.569Z,1.58
2023-02-27T08:59:51.489Z,1.55
2023-02-27T09:02:19.550Z,0.73
2023-02-27T09:04:48.965Z,1.30
2023-02-27T09:07:16.855Z,1.92
2023-02-27T09:09:45.098Z,0.77
2023-02-27T09:12:13.333Z,1.17
2023-02-27T09:14:41.452Z,0.90
2023-02-27T09:17:09.516Z,1.27
2023-02-27T09:19:37.362Z,1.27
2023-02-27T09:22:06.618Z,1.10
2023-02-27T09:24:34.525Z,1.50
2023-02-27T09:27:08.306Z,1.30
2023-02-27T09:29:36.356Z,1.55
2023-02-27T09:32:05.737Z,1.13
2023-02-27T09:34:33.978Z,0.70
2023-02-27T09:37:02.741Z,1.02
2023-02-27T09:39:32.279Z,1.17
2023-02-27T09:42:04.320Z,1.45
2023-02-27T09:44:46.281Z,1.45
2023-02-27T09:47:19.178Z,1.33
2023-02-27T09:50:02.634Z,1.38
2023-02-27T09:52:34.157Z,1.10
2023-02-27T09:55:04.182Z,0.80
2023-02-27T09:57:44.772Z,1.00
2023-02-27T10:00:45.491Z,1.17
2023-02-27T10:03:27.915Z,1.00
2023-02-27T10:06:18.218Z,1.13
2023-02-27T10:08:52.465Z,1.38
2023-02-27T10:11:31.350Z,1.38
2023-02-27T10:14:05.152Z,1.00
2023-02-27T10:16:34.970Z,1.15
2023-02-27T10:19:08.382Z,1.27
2023-02-27T10:21:43.037Z,1.15
2023-02-27T10:24:27.547Z,1.55
2023-02-27T10:26:59.057Z,1.65
2023-02-27T10:29:31.171Z,1.10
2023-02-27T10:32:03.509Z,1.15
2023-02-27T10:34:35.532Z,1.67
2023-02-27T10:37:06.300Z,0.98
2023-02-27T10:39:48.924Z,1.13
2023-02-27T10:42:19.092Z,1.00
2023-02-27T10:44:53.933Z,1.50
2023-02-27T10:47:24.731Z,1.65
2023-02-27T10:49:54.608Z,1.13
2023-02-27T10:52:28.380Z,1.20
2023-02-27T10:55:30.378Z,1.50
2023-02-27T10:58:02.476Z,1.03
2023-02-27T11:00:42.179Z,1.17
2023-02-27T11:03:21.203Z,1.35
2023-02-27T11:05:55.863Z,1.30
2023-02-27T11:08:25.741Z,1.10
2023-02-27T11:11:01.076Z,1.30
2023-02-27T11:13:33.280Z,1.10
2023-02-27T11:16:09.784Z,1.20
2023-02-27T11:18:39.420Z,1.45
2023-02-27T11:21:22.491Z,1.20
2023-02-27T11:23:59.706Z,0.90
2023-02-27T11:26:34.159Z,1.05
2023-02-27T11:29:09.194Z,1.40
2023-02-27T11:31:38.659Z,1.42
2023-02-27T11:34:08.331Z,1.00
2023-02-27T11:36:41.545Z,1.02
2023-02-27T11:39:23.770Z,1.02
2023-02-27T11:41:52.080Z,0.98
2023-02-27T11:44:38.623Z,1.20
2023-02-27T11:47:22.368Z,1.13
2023-02-27T11:50:34.279Z,1.40
2023-02-27T11:53:15.545Z,1.30
2023-02-27T11:55:45.167Z,1.30
2023-02-27T11:58:16.420Z,1.13
2023-02-27T12:00:51.687Z,1.00
2023-02-27T12:03:25.398Z,1.40
2023-02-27T12:05:57.006Z,2.00
2023-02-27T12:08:33.961Z,1.20
2023-02-27T12:11:13.862Z,1.80
2023-02-27T12:13:45.843Z,1.67
2023-02-27T12:16:22.166Z,1.98
2023-02-27T12:18:53.192Z,1.30
2023-02-27T12:21:24.544Z,1.17
2023-02-27T12:23:57.993Z,0.93
2023-02-27T12:26:30.202Z,1.10
2023-02-27T12:31:42.127Z,1.88
2023-02-27T12:34:21.252Z,1.27
2023-02-27T12:36:49.590Z,1.45
2023-02-27T12:39:20.587Z,1.52
2023-02-27T12:42:15.882Z,1.15
2023-02-27T12:44:58.497Z,1.25
2023-02-27T12:47:38.424Z,1.30
2023-02-27T12:50:11.478Z,1.20
2023-02-27T12:52:56.102Z,1.42
2023-02-27T12:55:28.347Z,1.25
2023-02-27T12:58:24.328Z,1.40
2023-02-27T13:00:59.727Z,1.45
2023-02-27T13:03:36.060Z,1.27
2023-02-27T13:06:13.061Z,1.33
2023-02-27T13:08:54.733Z,1.15
2023-02-27T13:11:37.444Z,1.40
2023-02-27T13:16:43.127Z,1.40
2023-02-27T13:19:19.095Z,1.52
2023-02-27T13:21:52.453Z,1.88
2023-02-27T13:24:26.939Z,1.33
2023-02-27T13:27:03.854Z,1.40
2023-02-27T13:29:45.215Z,1.20
2023-02-27T13:32:25.115Z,1.27
2023-02-27T13:35:08.864Z,1.77
2023-02-27T13:37:58.424Z,1.20
2023-02-27T13:40:40.528Z,1.23
2023-02-27T13:43:40.572Z,1.25
2023-02-27T13:46:23.364Z,1.08
2023-02-27T13:48:53.724Z,1.25
2023-02-27T13:51:50.861Z,1.35
2023-02-27T13:54:41.684Z,0.98
2023-02-27T13:57:24.987Z,1.05
2023-02-27T14:00:09.077Z,1.23
2023-02-27T14:02:57.944Z,1.02
2023-02-27T14:05:31.268Z,1.42
2023-02-27T14:08:06.729Z,1.08
2023-02-27T14:10:37.152Z,1.55
2023-02-27T14:13:05.381Z,1.10
2023-02-27T14:15:57.840Z,1.10
2023-02-27T14:19:02.343Z,1.42
2023-02-27T14:21:57.210Z,1.33
2023-02-27T14:24:33.279Z,1.45
2023-02-27T14:27:03.097Z,1.67
2023-02-27T14:29:34.030Z,1.23
2023-02-27T14:32:07.200Z,1.30
2023-02-27T14:34:39.835Z,1.25
2023-02-27T14:37:15.522Z,1.65
2023-02-27T14:39:51.182Z,1.55
2023-02-27T14:42:47.987Z,1.20
2023-02-27T14:45:24.242Z,1.77
2023-02-27T14:47:54.412Z,1.60
2023-02-27T14:50:26.730Z,1.50
2023-02-27T14:52:56.062Z,1.50
2023-02-27T14:55:34.062Z,1.88
2023-02-27T14:58:12.350Z,1.88
2023-02-27T15:00:44.736Z,2.08
2023-02-27T15:03:20.644Z,1.83
2023-02-27T15:05:50.522Z,1.40
2023-02-27T15:08:22.493Z,1.58
2023-02-27T15:10:54.416Z,2.42
2023-02-27T15:13:27.085Z,1.50
2023-02-27T15:16:20.629Z,1.63
2023-02-27T15:18:53.291Z,1.70
2023-02-27T15:21:27.534Z,1.27
2023-02-27T15:23:58.498Z,1.70
2023-02-27T15:26:32.648Z,1.35
2023-02-27T15:29:01.016Z,1.40
2023-02-27T15:31:32.373Z,1.63
2023-02-27T15:34:02.969Z,1.20
2023-02-27T15:36:34.162Z,1.60
2023-02-27T15:39:17.174Z,0.95
2023-02-27T15:41:50.398Z,1.23
2023-02-27T15:44:22.122Z,1.55
2023-02-27T15:46:51.514Z,1.30
2023-02-27T15:49:22.401Z,1.23
2023-02-27T15:52:00.776Z,1.00
2023-02-27T15:54:35.428Z,1.05
2023-02-27T15:57:09.035Z,1.20
2023-02-27T15:59:50.152Z,1.30
2023-02-27T16:02:22.722Z,0.88
2023-02-27T16:04:53.490Z,1.00
2023-02-27T16:07:33.182Z,1.35
2023-02-27T16:10:07.716Z,1.73
2023-02-27T16:12:41.957Z,1.40
2023-02-27T16:15:25.571Z,1.35
2023-02-27T16:17:59.166Z,1.45
2023-02-27T16:20:44.372Z,1.10
2023-02-27T16:23:26.143Z,1.00
2023-02-27T16:26:05.335Z,1.43
2023-02-27T16:28:40.313Z,1.75
2023-02-27T16:31:26.108Z,1.48
2023-02-27T16:33:58.800Z,1.52
2023-02-27T16:36:28.895Z,0.90
2023-02-27T16:38:59.357Z,1.05
2023-02-27T16:41:29.030Z,1.33
2023-02-27T16:43:59.032Z,1.20
2023-02-27T16:46:27.960Z,1.10
2023-02-27T16:49:14.242Z,0.95
2023-02-27T16:51:48.076Z,1.10
2023-02-27T16:54:16.853Z,1.30
2023-02-27T16:56:47.406Z,1.15
2023-02-27T16:59:29.998Z,1.38
2023-02-27T17:02:04.763Z,2.08
2023-02-27T17:04:33.885Z,1.30
2023-02-27T17:07:06.628Z,1.13
2023-02-27T17:09:38.576Z,1.33
2023-02-27T17:12:08.288Z,1.30
2023-02-27T17:14:38.586Z,1.50
2023-02-27T17:17:07.817Z,1.00
2023-02-27T17:19:36.452Z,1.30
2023-02-27T17:22:05.031Z,1.20
2023-02-27T17:24:33.725Z,1.08
2023-02-27T17:27:01.982Z,1.27
2023-02-27T17:29:33.211Z,1.52
2023-02-27T17:32:05.575Z,0.90
2023-02-27T17:34:36.995Z,1.13
2023-02-27T17:37:11.302Z,1.30
2023-02-27T17:39:42.641Z,0.80
2023-02-27T17:42:12.972Z,1.27
2023-02-27T17:44:43.504Z,1.08
2023-02-27T17:47:14.918Z,1.00
2023-02-27T17:49:48.217Z,1.00
2023-02-27T17:52:20.140Z,2.00
2023-02-27T17:54:48.933Z,1.65
2023-02-27T17:57:19.627Z,1.60
2023-02-27T17:59:51.053Z,1.80
2023-02-27T18:02:20.643Z,2.20
2023-02-27T18:04:48.911Z,2.20
2023-02-27T18:07:16.972Z,1.52
2023-02-27T18:09:45.695Z,1.77
2023-02-27T18:12:16.164Z,1.50
2023-02-27T18:14:44.221Z,2.00
2023-02-27T18:17:13.054Z,1.27
2023-02-27T18:19:46.494Z,1.08
2023-02-27T18:22:15.393Z,1.42
2023-02-27T18:24:43.418Z,1.52
2023-02-27T18:27:11.607Z,1.38
2023-02-27T18:29:39.731Z,1.23
2023-02-27T18:32:09.688Z,1.30
2023-02-27T18:34:37.704Z,1.17
2023-02-27T18:37:07.314Z,1.13
2023-02-27T18:39:35.486Z,1.02
2023-02-27T18:42:05.339Z,1.20
2023-02-27T18:44:34.645Z,1.67
2023-02-27T18:47:02.741Z,1.20
2023-02-27T18:49:31.328Z,0.98
2023-02-27T18:52:00.951Z,1.10
2023-02-27T18:54:38.586Z,1.35
2023-02-27T18:57:12.687Z,1.00
2023-02-27T18:59:42.299Z,1.30
2023-02-27T19:02:18.949Z,1.33
2023-02-27T19:04:50.504Z,1.63
2023-02-27T19:07:25.613Z,1.40
2023-02-27T19:09:56.609Z,1.52
2023-02-27T19:12:28.897Z,2.08
2023-02-27T19:14:57.570Z,1.90
2023-02-27T19:17:28.748Z,1.77
2023-02-27T19:19:57.325Z,1.95
2023-02-27T19:22:34.967Z,1.67
2023-02-27T19:25:06.709Z,1.73
2023-02-27T19:27:41.839Z,1.48
2023-02-27T19:30:17.959Z,1.10
2023-02-27T19:32:50.549Z,1.00
2023-02-27T19:35:32.419Z,1.30
2023-02-27T19:38:00.940Z,1.30
2023-02-27T19:40:39.855Z,1.38
2023-02-27T19:43:18.029Z,1.02
2023-02-27T19:45:49.453Z,1.48
2023-02-27T19:48:36.436Z,1.33
2023-02-27T19:51:10.547Z,1.50
2023-02-27T19:53:43.533Z,1.40
2023-02-27T19:56:15.991Z,1.27
2023-02-27T20:01:24.716Z,1.05
2023-02-27T20:03:53.389Z,1.63
2023-02-27T20:06:26.317Z,1.35
2023-02-27T20:09:03.031Z,1.30
2023-02-27T20:11:39.867Z,1.50
2023-02-27T20:14:11.847Z,1.40
2023-02-27T20:16:43.679Z,2.00
2023-02-27T20:19:18.599Z,1.75
2023-02-27T20:21:48.906Z,1.40
2023-02-27T20:24:19.137Z,1.40
2023-02-27T20:26:55.620Z,1.60
2023-02-27T20:29:28.925Z,1.63
2023-02-27T20:32:02.751Z,1.20
2023-02-27T20:34:39.189Z,2.03
2023-02-27T20:37:09.503Z,1.65
2023-02-27T20:39:38.367Z,1.45
2023-02-27T20:42:08.644Z,1.60
2023-02-27T20:44:37.565Z,1.23
2023-02-27T20:47:10.907Z,1.65
2023-02-27T20:49:40.663Z,1.23
2023-02-27T20:52:11.204Z,1.50
2023-02-27T20:54:46.009Z,1.40
2023-02-27T20:57:20.680Z,1.48
2023-02-27T20:59:51.561Z,1.83
2023-02-27T21:02:23.501Z,1.40
2023-02-27T21:04:57.582Z,1.30
2023-02-27T21:07:34.734Z,1.33
2023-02-27T21:10:12.716Z,1.38
2023-02-27T21:12:50.157Z,1.58
2023-02-27T21:15:21.388Z,1.05
2023-02-27T21:17:52.831Z,1.38
2023-02-27T21:20:21.438Z,1.20
2023-02-27T21:23:02.059Z,1.30
2023-02-27T21:25:35.053Z,1.55
2023-02-27T21:28:06.632Z,1.20
2023-02-27T21:30:36.251Z,1.03
2023-02-27T21:33:05.078Z,1.25
2023-02-27T21:35:35.666Z,1.80
2023-02-27T21:38:10.199Z,1.50
2023-02-27T21:40:44.394Z,1.50
2023-02-27T21:43:14.560Z,1.75
2023-02-27T21:45:51.950Z,1.98
2023-02-27T21:48:25.491Z,1.63
2023-02-27T21:51:04.434Z,1.90
2023-02-27T21:53:36.803Z,2.08
2023-02-27T21:56:12.053Z,1.77
2023-02-27T21:58:46.577Z,1.92
2023-02-27T22:01:27.466Z,2.10
2023-02-27T22:04:04.259Z,1.70
2023-02-27T22:06:36.868Z,1.60
2023-02-27T22:09:13.233Z,1.60
2023-02-27T22:11:49.998Z,1.80
2023-02-27T22:14:26.465Z,1.67
2023-02-27T22:16:58.084Z,1.70
2023-02-27T22:19:26.389Z,1.07
2023-02-27T22:21:56.524Z,1.67
2023-02-27T22:24:26.909Z,2.00
2023-02-27T22:26:58.370Z,2.00
2023-02-27T22:29:30.084Z,2.58
2023-02-27T22:31:58.954Z,1.70
2023-02-27T22:34:29.897Z,1.75
2023-02-27T22:37:01.413Z,1.90
2023-02-27T22:39:29.860Z,1.63
2023-02-27T22:41:58.411Z,1.73
2023-02-27T22:44:29.611Z,1.70
2023-02-27T22:46:58.122Z,1.50
2023-02-27T22:49:28.204Z,1.80
2023-02-27T22:51:59.870Z,2.25
2023-02-27T22:54:31.627Z,1.85
2023-02-27T22:57:00.148Z,1.50
2023-02-27T22:59:35.314Z,1.50
2023-02-27T23:02:03.726Z,1.60
2023-02-27T23:04:32.215Z,1.55
2023-02-27T23:07:03.576Z,1.60
2023-02-27T23:09:32.245Z,1.88
2023-02-27T23:12:02.266Z,1.88
2023-02-27T23:14:33.693Z,1.70
2023-02-27T23:17:01.670Z,1.50
2023-02-27T23:19:29.623Z,1.90
2023-02-27T23:21:57.507Z,2.15
2023-02-27T23:24:25.392Z,1.70
2023-02-27T23:26:53.764Z,1.85
2023-02-27T23:29:22.179Z,1.98
2023-02-27T23:31:51.576Z,1.88
2023-02-27T23:34:21.759Z,1.73
2023-02-27T23:36:52.380Z,1.90
2023-02-27T23:39:21.181Z,1.95
2023-02-27T23:41:49.305Z,1.90
2023-02-27T23:44:17.271Z,1.67
2023-02-27T23:46:45.181Z,1.60
2023-02-27T23:49:14.545Z,2.55
2023-02-27T23:51:42.550Z,1.90
2023-02-27T23:54:10.524Z,1.70
2023-02-27T23:56:38.790Z,2.10
2023-02-27T23:59:08.216Z,1.65
